createdAt,value
2023-06-24T00:01:44.642Z,6.07
2023-06-24T00:04:11.189Z,6.55
2023-06-24T00:06:40.823Z,7.43
2023-06-24T00:09:08.735Z,9.90
2023-06-24T00:11:35.291Z,7.28
2023-06-24T00:14:01.689Z,6.60
2023-06-24T00:16:28.292Z,6.40
2023-06-24T00:18:59.264Z,5.85
2023-06-24T00:21:30.908Z,5.70
2023-06-24T00:23:58.602Z,6.78
2023-06-24T00:26:26.012Z,7.00
2023-06-24T00:28:52.568Z,7.90
2023-06-24T00:31:20.181Z,7.30
2023-06-24T00:33:46.744Z,6.07
2023-06-24T00:36:13.189Z,5.40
2023-06-24T00:38:40.517Z,7.13
2023-06-24T00:41:08.237Z,8.60
2023-06-24T00:43:35.000Z,5.88
2023-06-24T00:46:01.711Z,6.10
2023-06-24T00:48:28.104Z,8.88
2023-06-24T00:50:54.489Z,7.07
2023-06-24T00:53:22.376Z,6.85
2023-06-24T00:55:48.978Z,6.88
2023-06-24T00:58:17.325Z,7.18
2023-06-24T01:00:46.894Z,6.53
2023-06-24T01:03:17.276Z,8.98
2023-06-24T01:05:45.820Z,5.60
2023-06-24T01:08:16.411Z,5.63
2023-06-24T01:10:43.381Z,5.90
2023-06-24T01:13:09.881Z,5.38
2023-06-24T01:15:37.367Z,6.10
2023-06-24T01:18:11.891Z,5.30
2023-06-24T01:20:58.918Z,6.68
2023-06-24T01:23:50.246Z,5.50
2023-06-24T01:27:08.845Z,7.60
2023-06-24T01:29:51.590Z,4.60
2023-06-24T01:32:23.752Z,5.65
2023-06-24T01:35:04.070Z,7.07
2023-06-24T01:37:38.459Z,4.50
2023-06-24T01:40:26.371Z,5.13
2023-06-24T01:42:54.483Z,4.75
2023-06-24T01:45:25.889Z,6.22
2023-06-24T01:48:07.682Z,6.68
2023-06-24T01:50:37.037Z,8.50
2023-06-24T01:53:08.308Z,6.72
2023-06-24T01:55:37.734Z,5.63
2023-06-24T01:58:06.984Z,6.40
2023-06-24T02:00:35.078Z,4.65
2023-06-24T02:03:02.849Z,6.32
2023-06-24T02:05:29.792Z,7.30
2023-06-24T02:07:57.805Z,6.10
2023-06-24T02:10:25.511Z,6.38
2023-06-24T02:12:53.713Z,6.55
2023-06-24T02:15:21.285Z,6.90
2023-06-24T02:17:52.042Z,5.82
2023-06-24T02:20:19.479Z,6.88
2023-06-24T02:22:46.737Z,6.80
2023-06-24T02:25:14.285Z,6.07
2023-06-24T02:27:41.620Z,5.95
2023-06-24T02:30:09.688Z,6.68
2023-06-24T02:32:39.251Z,8.48
2023-06-24T02:35:06.468Z,6.55
2023-06-24T02:37:32.900Z,8.13
2023-06-24T02:40:00.911Z,5.30
2023-06-24T02:42:27.364Z,6.15
2023-06-24T02:44:53.858Z,6.28
2023-06-24T02:47:22.822Z,5.85
2023-06-24T02:49:50.139Z,7.13
2023-06-24T02:52:17.112Z,7.90
2023-06-24T02:54:44.597Z,5.10
2023-06-24T02:57:11.324Z,5.75
2023-06-24T02:59:38.579Z,5.40
2023-06-24T03:02:07.182Z,6.13
2023-06-24T03:04:34.371Z,6.40
2023-06-24T03:07:01.380Z,5.82
2023-06-24T03:09:28.429Z,5.47
2023-06-24T03:11:54.991Z,6.28
2023-06-24T03:14:21.400Z,6.63
2023-06-24T03:16:47.776Z,7.53
2023-06-24T03:19:14.392Z,7.35
2023-06-24T03:21:40.974Z,6.97
2023-06-24T03:24:07.441Z,8.07
2023-06-24T03:26:36.817Z,7.53
2023-06-24T03:29:03.756Z,5.53
2023-06-24T03:31:30.776Z,7.15
2023-06-24T03:33:57.259Z,6.10
2023-06-24T03:36:25.187Z,5.50
2023-06-24T03:38:52.129Z,9.15
2023-06-24T03:41:18.907Z,7.88
2023-06-24T03:43:46.112Z,8.82
2023-06-24T03:46:12.815Z,7.18
2023-06-24T03:48:39.696Z,6.13
2023-06-24T03:51:06.103Z,5.25
2023-06-24T03:53:34.014Z,7.10
2023-06-24T03:56:02.137Z,5.80
2023-06-24T03:58:28.788Z,4.85
2023-06-24T04:00:57.637Z,5.53
2023-06-24T04:03:26.857Z,6.80
2023-06-24T04:05:57.134Z,5.53
2023-06-24T04:08:26.263Z,5.70
2023-06-24T04:10:52.687Z,6.97
2023-06-24T04:13:19.294Z,6.10
2023-06-24T04:15:45.666Z,7.50
2023-06-24T04:18:12.211Z,6.90
2023-06-24T04:20:38.690Z,5.68
2023-06-24T04:23:06.886Z,8.95
2023-06-24T04:25:33.527Z,6.55
2023-06-24T04:28:00.128Z,7.82
2023-06-24T04:30:26.555Z,8.95
2023-06-24T04:32:53.029Z,6.93
2023-06-24T04:35:19.582Z,6.10
2023-06-24T04:37:45.990Z,8.50
2023-06-24T04:40:14.470Z,7.57
2023-06-24T04:42:40.845Z,8.32
2023-06-24T04:45:07.650Z,8.00
2023-06-24T04:47:34.147Z,6.50
2023-06-24T04:50:00.739Z,6.70
2023-06-24T04:52:27.153Z,7.35
2023-06-24T04:54:53.543Z,9.68
2023-06-24T04:57:31.497Z,8.82
2023-06-24T04:59:58.725Z,8.18
2023-06-24T05:02:25.500Z,9.80
2023-06-24T05:04:53.455Z,9.20
2023-06-24T05:07:20.490Z,7.47
2023-06-24T05:09:50.220Z,7.13
2023-06-24T05:12:16.611Z,7.78
2023-06-24T05:14:43.068Z,9.00
2023-06-24T05:17:09.560Z,9.00
2023-06-24T05:19:36.000Z,8.98
2023-06-24T05:22:02.833Z,6.43
2023-06-24T05:24:29.554Z,11.68
2023-06-24T05:26:55.956Z,8.02
2023-06-24T05:29:22.367Z,7.55
2023-06-24T05:31:48.911Z,9.25
2023-06-24T05:34:15.342Z,7.65
2023-06-24T05:36:41.863Z,7.90
2023-06-24T05:39:09.037Z,9.07
2023-06-24T05:41:36.491Z,6.57
2023-06-24T05:44:04.808Z,7.20
2023-06-24T05:46:31.849Z,9.15
2023-06-24T05:48:58.465Z,8.73
2023-06-24T05:51:24.919Z,8.73
2023-06-24T05:53:51.289Z,6.97
2023-06-24T05:56:19.012Z,8.75
2023-06-24T05:58:45.434Z,9.30
2023-06-24T06:01:12.043Z,7.32
2023-06-24T06:03:38.613Z,8.50
2023-06-24T06:06:05.304Z,7.22
2023-06-24T06:08:31.786Z,9.82
2023-06-24T06:10:58.221Z,8.82
2023-06-24T06:13:24.592Z,8.93
2023-06-24T06:15:51.044Z,7.03
2023-06-24T06:18:17.493Z,8.20
2023-06-24T06:20:43.954Z,8.20
2023-06-24T06:23:10.407Z,10.35
2023-06-24T06:25:38.402Z,7.97
2023-06-24T06:28:06.013Z,8.98
2023-06-24T06:30:32.511Z,9.80
2023-06-24T06:32:59.395Z,8.90
2023-06-24T06:35:25.925Z,9.20
2023-06-24T06:37:56.815Z,9.40
2023-06-24T06:40:24.126Z,7.65
2023-06-24T06:42:50.890Z,9.30
2023-06-24T06:45:18.073Z,8.45
2023-06-24T06:47:45.222Z,7.30
2023-06-24T06:50:11.733Z,11.68
2023-06-24T06:52:39.402Z,10.35
2023-06-24T06:55:06.170Z,10.50
2023-06-24T06:57:32.988Z,8.00
2023-06-24T06:59:59.488Z,9.45
2023-06-24T07:02:25.958Z,9.68
2023-06-24T07:04:52.453Z,7.63
2023-06-24T07:07:19.124Z,8.65
2023-06-24T07:09:47.415Z,6.85
2023-06-24T07:12:14.482Z,9.43
2023-06-24T07:14:40.879Z,9.65
2023-06-24T07:17:08.355Z,9.02
2023-06-24T07:19:34.884Z,8.15
2023-06-24T07:22:01.277Z,8.30
2023-06-24T07:24:27.750Z,10.55
2023-06-24T07:26:54.461Z,10.65
2023-06-24T07:29:20.873Z,7.45
2023-06-24T07:31:47.477Z,7.63
2023-06-24T07:34:14.070Z,8.30
2023-06-24T07:36:40.787Z,7.45
2023-06-24T07:39:07.663Z,6.20
2023-06-24T07:41:34.339Z,7.57
2023-06-24T07:44:01.052Z,6.05
2023-06-24T07:46:29.027Z,9.00
2023-06-24T07:49:01.066Z,6.78
2023-06-24T07:51:28.259Z,8.10
2023-06-24T07:53:54.784Z,8.32
2023-06-24T07:56:21.455Z,7.55
2023-06-24T07:58:48.097Z,7.85
2023-06-24T08:01:14.771Z,7.20
2023-06-24T08:03:41.311Z,7.65
2023-06-24T08:06:08.235Z,7.97
2023-06-24T08:08:34.838Z,6.82
2023-06-24T08:11:01.393Z,9.27
2023-06-24T08:13:27.957Z,7.90
2023-06-24T08:15:54.419Z,6.93
2023-06-24T08:18:20.980Z,7.30
2023-06-24T08:20:47.622Z,7.57
2023-06-24T08:23:14.050Z,5.90
2023-06-24T08:25:40.506Z,6.93
2023-06-24T08:28:06.972Z,7.55
2023-06-24T08:30:34.125Z,6.82
2023-06-24T08:33:01.048Z,6.35
2023-06-24T08:35:27.495Z,7.65
2023-06-24T08:37:53.945Z,8.63
2023-06-24T08:40:20.584Z,6.93
2023-06-24T08:42:47.182Z,7.40
2023-06-24T08:45:13.612Z,6.03
2023-06-24T08:47:41.924Z,7.28
2023-06-24T08:50:13.171Z,7.88
2023-06-24T08:52:44.202Z,5.55
2023-06-24T08:55:14.677Z,7.00
2023-06-24T08:57:41.106Z,7.90
2023-06-24T09:00:12.009Z,5.90
2023-06-24T09:02:39.694Z,6.65
2023-06-24T09:05:09.638Z,12.30
2023-06-24T09:07:36.266Z,9.38
2023-06-24T09:10:02.966Z,7.68
2023-06-24T09:12:32.865Z,8.15
2023-06-24T09:14:59.615Z,6.28
2023-06-24T09:17:27.552Z,9.30
2023-06-24T09:19:55.144Z,8.77
2023-06-24T09:22:21.857Z,7.68
2023-06-24T09:24:49.644Z,7.22
2023-06-24T09:27:20.410Z,6.50
2023-06-24T09:29:48.276Z,6.75
2023-06-24T09:32:14.809Z,6.55
2023-06-24T09:34:41.362Z,5.18
2023-06-24T09:37:08.222Z,5.72
2023-06-24T09:39:39.979Z,6.70
2023-06-24T09:42:08.313Z,6.00
2023-06-24T09:44:35.026Z,8.48
2023-06-24T09:47:01.714Z,8.02
2023-06-24T09:49:28.202Z,7.35
2023-06-24T09:51:59.154Z,8.43
2023-06-24T09:54:33.920Z,5.80
2023-06-24T09:57:04.730Z,6.93
2023-06-24T09:59:34.257Z,6.18
2023-06-24T10:02:01.135Z,6.25
2023-06-24T10:04:28.863Z,5.72
2023-06-24T10:06:56.106Z,5.65
2023-06-24T10:09:22.860Z,5.63
2023-06-24T10:11:49.335Z,10.15
2023-06-24T10:14:16.468Z,5.30
2023-06-24T10:16:44.098Z,8.00
2023-06-24T10:19:10.612Z,7.07
2023-06-24T10:21:49.553Z,6.65
2023-06-24T10:24:29.675Z,6.50
2023-06-24T10:27:01.073Z,9.13
2023-06-24T10:29:38.209Z,7.22
2023-06-24T10:32:09.639Z,8.60
2023-06-24T10:34:43.397Z,6.55
2023-06-24T10:37:19.911Z,7.50
2023-06-24T10:39:57.113Z,5.90
2023-06-24T10:42:34.698Z,8.10
2023-06-24T10:45:10.254Z,5.70
2023-06-24T10:47:40.513Z,5.10
2023-06-24T10:50:08.358Z,5.78
2023-06-24T10:52:42.662Z,6.80
2023-06-24T10:55:09.787Z,6.47
2023-06-24T10:57:36.691Z,5.72
2023-06-24T11:00:04.726Z,4.97
2023-06-24T11:02:31.351Z,5.97
2023-06-24T11:04:59.873Z,8.98
2023-06-24T11:07:28.680Z,5.88
2023-06-24T11:10:01.792Z,5.00
2023-06-24T11:12:30.851Z,6.15
2023-06-24T11:14:58.973Z,6.03
2023-06-24T11:17:26.236Z,6.20
2023-06-24T11:19:56.427Z,6.18
2023-06-24T11:22:23.964Z,5.32
2023-06-24T11:24:50.966Z,6.15
2023-06-24T11:27:17.726Z,7.10
2023-06-24T11:29:45.606Z,4.95
2023-06-24T11:32:12.042Z,5.55
2023-06-24T11:34:38.683Z,5.25
2023-06-24T11:37:15.815Z,5.38
2023-06-24T11:39:42.555Z,6.43
2023-06-24T11:42:10.127Z,7.95
2023-06-24T11:44:41.704Z,7.15
2023-06-24T11:47:09.984Z,4.95
2023-06-24T11:49:56.055Z,5.07
2023-06-24T11:55:20.344Z,5.35
2023-06-24T11:57:56.999Z,5.93
2023-06-24T12:00:33.008Z,7.75
2023-06-24T12:03:02.239Z,5.50
2023-06-24T12:05:33.789Z,6.25
2023-06-24T12:08:02.625Z,6.18
2023-06-24T12:10:30.266Z,5.93
2023-06-24T12:12:58.569Z,5.03
2023-06-24T12:15:25.065Z,6.00
2023-06-24T12:17:51.508Z,5.47
2023-06-24T12:20:18.974Z,6.70
2023-06-24T12:22:49.668Z,7.70
2023-06-24T12:25:17.850Z,8.15
2023-06-24T12:27:45.016Z,8.63
2023-06-24T12:30:12.577Z,5.93
2023-06-24T12:32:39.810Z,6.68
2023-06-24T12:35:09.201Z,6.10
2023-06-24T12:37:36.382Z,5.65
2023-06-24T12:40:04.927Z,5.43
2023-06-24T12:42:31.473Z,6.43
2023-06-24T12:44:58.032Z,5.57
2023-06-24T12:47:24.451Z,5.25
2023-06-24T12:49:51.319Z,7.40
2023-06-24T12:52:17.721Z,6.05
2023-06-24T12:54:44.230Z,5.25
2023-06-24T12:57:14.447Z,4.45
2023-06-24T12:59:41.348Z,5.63
2023-06-24T13:02:07.879Z,4.68
2023-06-24T13:04:34.527Z,4.95
2023-06-24T13:07:01.025Z,5.47
2023-06-24T13:09:27.450Z,4.78
2023-06-24T13:11:53.959Z,5.28
2023-06-24T13:14:20.373Z,5.60
2023-06-24T13:16:48.092Z,5.25
2023-06-24T13:19:16.652Z,4.60
2023-06-24T13:21:43.409Z,4.63
2023-06-24T13:24:10.005Z,5.10
2023-06-24T13:26:36.684Z,5.72
2023-06-24T13:29:03.853Z,4.07
2023-06-24T13:31:30.622Z,5.15
2023-06-24T13:33:57.173Z,4.15
2023-06-24T13:36:33.781Z,3.85
2023-06-24T13:39:00.303Z,4.43
2023-06-24T13:41:30.193Z,4.32
2023-06-24T13:43:57.928Z,3.90
2023-06-24T13:46:24.393Z,3.72
2023-06-24T13:48:51.063Z,4.32
2023-06-24T13:51:19.776Z,5.47
2023-06-24T13:53:46.951Z,3.95
2023-06-24T13:56:13.365Z,3.03
2023-06-24T13:58:39.793Z,3.20
2023-06-24T14:01:06.243Z,5.28
2023-06-24T14:03:32.758Z,3.05
2023-06-24T14:05:59.317Z,3.05
2023-06-24T14:08:25.742Z,3.30
2023-06-24T14:10:52.276Z,3.90
2023-06-24T14:13:18.678Z,3.17
2023-06-24T14:15:45.242Z,4.25
2023-06-24T14:18:11.759Z,4.70
2023-06-24T14:20:38.287Z,4.90
2023-06-24T14:23:05.311Z,4.25
2023-06-24T14:25:31.741Z,5.10
2023-06-24T14:27:58.214Z,5.32
2023-06-24T14:30:24.673Z,5.22
2023-06-24T14:32:51.390Z,3.47
2023-06-24T14:35:17.905Z,3.28
2023-06-24T14:37:44.319Z,3.90
2023-06-24T14:40:10.878Z,3.10
2023-06-24T14:42:37.657Z,5.18
2023-06-24T14:45:04.385Z,3.50
2023-06-24T14:47:30.928Z,3.35
2023-06-24T14:49:57.644Z,3.88
2023-06-24T14:52:24.377Z,3.50
2023-06-24T14:54:50.755Z,3.83
2023-06-24T14:57:17.229Z,3.00
2023-06-24T14:59:43.607Z,4.45
2023-06-24T15:02:10.070Z,4.43
2023-06-24T15:04:36.925Z,3.20
2023-06-24T15:07:03.682Z,3.55
2023-06-24T15:09:30.077Z,3.00
2023-06-24T15:11:56.641Z,3.63
2023-06-24T15:14:23.093Z,3.10
2023-06-24T15:16:50.625Z,4.50
2023-06-24T15:19:17.067Z,3.30
2023-06-24T15:21:43.485Z,3.78
2023-06-24T15:24:09.857Z,3.85
2023-06-24T15:26:36.249Z,3.60
2023-06-24T15:29:02.667Z,3.03
2023-06-24T15:31:29.365Z,3.70
2023-06-24T15:33:56.095Z,3.00
2023-06-24T15:36:23.352Z,3.25
2023-06-24T15:38:49.823Z,2.67
2023-06-24T15:41:16.207Z,3.00
2023-06-24T15:43:44.358Z,3.13
2023-06-24T15:46:12.037Z,2.67
2023-06-24T15:48:38.558Z,3.40
2023-06-24T15:51:05.364Z,4.22
2023-06-24T15:53:34.107Z,2.78
2023-06-24T15:56:01.116Z,2.95
2023-06-24T15:58:27.594Z,2.70
2023-06-24T16:00:54.048Z,3.13
2023-06-24T16:03:20.608Z,2.92
2023-06-24T16:05:47.138Z,2.88
2023-06-24T16:08:13.556Z,4.90
2023-06-24T16:10:40.541Z,4.57
2023-06-24T16:13:07.998Z,2.97
2023-06-24T16:15:34.444Z,2.83
2023-06-24T16:18:00.963Z,4.00
2023-06-24T16:20:27.461Z,2.50
2023-06-24T16:22:53.876Z,4.00
2023-06-24T16:25:20.337Z,3.30
2023-06-24T16:27:46.768Z,2.92
2023-06-24T16:30:13.330Z,3.05
2023-06-24T16:32:39.779Z,2.90
2023-06-24T16:35:08.469Z,5.25
2023-06-24T16:37:34.937Z,2.78
2023-06-24T16:40:02.067Z,3.03
2023-06-24T16:42:28.518Z,3.13
2023-06-24T16:44:55.128Z,2.90
2023-06-24T16:47:21.830Z,2.63
2023-06-24T16:49:49.496Z,2.20
2023-06-24T16:52:16.018Z,2.60
2023-06-24T16:54:42.523Z,3.25
2023-06-24T16:57:08.921Z,2.47
2023-06-24T16:59:35.309Z,2.13
2023-06-24T17:02:01.867Z,2.70
2023-06-24T17:04:28.287Z,3.10
2023-06-24T17:06:54.711Z,2.20
2023-06-24T17:09:21.124Z,2.95
2023-06-24T17:11:47.655Z,3.35
2023-06-24T17:14:14.077Z,2.55
2023-06-24T17:16:40.590Z,2.72
2023-06-24T17:19:07.397Z,2.45
2023-06-24T17:21:34.042Z,2.35
2023-06-24T17:24:00.569Z,2.45
2023-06-24T17:26:27.006Z,2.35
2023-06-24T17:28:54.072Z,4.15
2023-06-24T17:31:20.621Z,2.28
2023-06-24T17:33:48.334Z,2.53
2023-06-24T17:36:14.762Z,2.10
2023-06-24T17:38:41.178Z,2.25
2023-06-24T17:41:07.583Z,2.60
2023-06-24T17:43:34.022Z,3.25
2023-06-24T17:46:00.521Z,2.40
2023-06-24T17:48:26.935Z,3.03
2023-06-24T17:50:53.461Z,2.35
2023-06-24T17:53:21.553Z,2.15
2023-06-24T17:55:47.967Z,2.40
2023-06-24T17:58:14.643Z,4.38
2023-06-24T18:00:41.608Z,2.70
2023-06-24T18:03:09.624Z,2.17
2023-06-24T18:05:36.437Z,2.22
2023-06-24T18:08:03.538Z,3.15
2023-06-24T18:10:29.973Z,2.88
2023-06-24T18:12:56.520Z,2.50
2023-06-24T18:15:22.917Z,4.05
2023-06-24T18:17:49.497Z,2.97
2023-06-24T18:20:16.019Z,2.75
2023-06-24T18:22:42.412Z,3.88
2023-06-24T18:25:09.496Z,3.13
2023-06-24T18:27:36.039Z,3.13
2023-06-24T18:30:02.483Z,3.85
2023-06-24T18:32:28.930Z,2.78
2023-06-24T18:34:57.402Z,3.05
2023-06-24T18:37:23.898Z,3.15
2023-06-24T18:39:50.358Z,2.63
2023-06-24T18:42:16.774Z,2.65
2023-06-24T18:44:43.174Z,2.60
2023-06-24T18:47:09.636Z,2.40
2023-06-24T18:49:36.032Z,2.80
2023-06-24T18:52:02.550Z,3.22
2023-06-24T18:54:29.090Z,5.63
2023-06-24T18:56:55.996Z,3.20
2023-06-24T18:59:22.416Z,4.25
2023-06-24T19:01:48.843Z,4.07
2023-06-24T19:04:15.368Z,3.53
2023-06-24T19:06:41.800Z,3.42
2023-06-24T19:09:08.356Z,2.95
2023-06-24T19:11:36.106Z,6.97
2023-06-24T19:14:02.666Z,3.80
2023-06-24T19:16:29.141Z,3.95
2023-06-24T19:18:55.504Z,3.55
2023-06-24T19:21:21.890Z,3.67
2023-06-24T19:23:48.335Z,3.30
2023-06-24T19:26:14.827Z,3.45
2023-06-24T19:28:41.246Z,4.78
2023-06-24T19:31:07.798Z,3.80
2023-06-24T19:33:34.329Z,3.92
2023-06-24T19:36:00.772Z,3.78
2023-06-24T19:38:27.491Z,3.45
2023-06-24T19:40:53.894Z,3.22
2023-06-24T19:43:22.448Z,6.03
2023-06-24T19:45:49.385Z,4.07
2023-06-24T19:48:16.553Z,5.43
2023-06-24T19:50:43.043Z,3.60
2023-06-24T19:53:09.447Z,4.15
2023-06-24T19:55:35.803Z,4.75
2023-06-24T19:58:02.233Z,4.65
2023-06-24T20:00:28.663Z,6.50
2023-06-24T20:02:55.954Z,12.07
2023-06-24T20:05:22.625Z,14.13
2023-06-24T20:07:49.009Z,13.10
2023-06-24T20:10:15.512Z,19.33
2023-06-24T20:12:43.132Z,12.80
2023-06-24T20:15:09.999Z,9.90
2023-06-24T20:17:36.438Z,8.70
2023-06-24T20:20:02.925Z,10.23
2023-06-24T20:22:29.477Z,8.98
2023-06-24T20:24:55.966Z,10.57
2023-06-24T20:27:22.535Z,10.07
2023-06-24T20:29:49.623Z,7.13
2023-06-24T20:32:16.031Z,9.48
2023-06-24T20:34:42.472Z,8.00
2023-06-24T20:37:08.964Z,5.13
2023-06-24T20:39:35.369Z,5.85
2023-06-24T20:42:01.855Z,7.55
2023-06-24T20:44:28.258Z,5.53
2023-06-24T20:46:54.683Z,6.55
2023-06-24T20:49:21.098Z,5.30
2023-06-24T20:51:50.057Z,6.40
2023-06-24T20:54:16.801Z,6.60
2023-06-24T20:56:43.235Z,6.68
2023-06-24T20:59:09.772Z,9.70
2023-06-24T21:01:36.296Z,6.85
2023-06-24T21:04:02.760Z,7.57
2023-06-24T21:06:29.140Z,8.93
2023-06-24T21:08:55.559Z,6.15
2023-06-24T21:11:22.344Z,6.60
2023-06-24T21:13:48.744Z,12.68
2023-06-24T21:16:15.159Z,7.57
2023-06-24T21:18:41.572Z,6.60
2023-06-24T21:21:08.315Z,8.38
2023-06-24T21:23:34.829Z,6.60
2023-06-24T21:26:01.222Z,6.28
2023-06-24T21:28:27.594Z,8.75
2023-06-24T21:30:54.060Z,15.35
2023-06-24T21:33:20.454Z,8.75
2023-06-24T21:35:56.514Z,7.22
2023-06-24T21:38:27.349Z,6.75
2023-06-24T21:40:53.755Z,6.43
2023-06-24T21:43:20.238Z,6.05
2023-06-24T21:45:46.745Z,6.28
2023-06-24T21:48:13.181Z,5.53
2023-06-24T21:50:39.559Z,9.15
2023-06-24T21:53:05.940Z,6.78
2023-06-24T21:55:32.350Z,7.93
2023-06-24T21:57:58.726Z,6.68
2023-06-24T22:00:26.225Z,6.00
2023-06-24T22:02:52.850Z,7.03
2023-06-24T22:05:33.139Z,5.78
2023-06-24T22:08:01.014Z,7.00
2023-06-24T22:10:27.401Z,7.65
2023-06-24T22:12:53.785Z,7.30
2023-06-24T22:15:20.407Z,9.63
2023-06-24T22:17:46.822Z,7.03
2023-06-24T22:20:13.275Z,6.70
2023-06-24T22:22:43.686Z,8.40
2023-06-24T22:25:11.428Z,7.22
2023-06-24T22:27:38.373Z,7.28
2023-06-24T22:30:06.507Z,6.93
2023-06-24T22:32:33.018Z,8.02
2023-06-24T22:34:59.546Z,7.55
2023-06-24T22:37:25.988Z,8.80
2023-06-24T22:39:52.413Z,7.45
2023-06-24T22:42:18.849Z,7.00
2023-06-24T22:44:45.256Z,11.05
2023-06-24T22:47:11.746Z,8.50
2023-06-24T22:49:38.250Z,6.65
2023-06-24T22:52:05.037Z,6.93
2023-06-24T22:54:31.470Z,6.32
2023-06-24T22:56:58.024Z,7.00
2023-06-24T22:59:24.393Z,9.18
2023-06-24T23:01:50.913Z,8.85
2023-06-24T23:04:17.516Z,8.40
2023-06-24T23:06:44.418Z,7.28
2023-06-24T23:09:13.377Z,7.65
2023-06-24T23:11:40.373Z,7.35
2023-06-24T23:14:07.006Z,10.70
2023-06-24T23:16:33.718Z,15.13
2023-06-24T23:19:00.299Z,9.00
2023-06-24T23:21:27.140Z,9.43
2023-06-24T23:23:53.971Z,10.55
2023-06-24T23:26:21.477Z,9.07
2023-06-24T23:28:51.363Z,8.57
2023-06-24T23:31:21.214Z,11.20
2023-06-24T23:33:48.246Z,12.57
2023-06-24T23:36:14.838Z,9.30
2023-06-24T23:38:41.479Z,9.32
2023-06-24T23:41:08.508Z,9.10
2023-06-24T23:43:35.217Z,10.07
2023-06-24T23:46:03.221Z,9.82
2023-06-24T23:48:29.786Z,10.23
2023-06-24T23:50:56.494Z,10.73
2023-06-24T23:53:22.942Z,10.30
2023-06-24T23:55:49.327Z,10.00
2023-06-24T23:58:15.717Z,12.25
